sensor_id;sensor_type;location;lat;lon;timestamp;P1;durP1;ratioP1;P2;durP2;ratioP2
46767;SDS011;69007;48.978;18.066;2023-08-20T00:02:19;18.95;;;11.57;;
46767;SDS011;69007;48.978;18.066;2023-08-20T00:04:48;12.82;;;11.27;;
46767;SDS011;69007;48.978;18.066;2023-08-20T00:07:13;13.32;;;12.02;;
46767;SDS011;69007;48.978;18.066;2023-08-20T00:09:40;14.18;;;11.80;;
46767;SDS011;69007;48.978;18.066;2023-08-20T00:12:06;20.30;;;11.55;;
46767;SDS011;69007;48.978;18.066;2023-08-20T00:17:18;13.38;;;11.90;;
46767;SDS011;69007;48.978;18.066;2023-08-20T00:19:44;17.55;;;13.10;;
46767;SDS011;69007;48.978;18.066;2023-08-20T00:22:10;24.80;;;13.18;;
46767;SDS011;69007;48.978;18.066;2023-08-20T00:24:35;14.20;;;12.23;;
46767;SDS011;69007;48.978;18.066;2023-08-20T00:27:01;19.15;;;12.45;;
46767;SDS011;69007;48.978;18.066;2023-08-20T00:29:26;20.27;;;12.75;;
46767;SDS011;69007;48.978;18.066;2023-08-20T00:31:51;15.75;;;12.23;;
46767;SDS011;69007;48.978;18.066;2023-08-20T00:34:17;16.60;;;12.68;;
46767;SDS011;69007;48.978;18.066;2023-08-20T00:36:42;18.02;;;12.23;;
46767;SDS011;69007;48.978;18.066;2023-08-20T00:39:07;16.67;;;12.80;;
46767;SDS011;69007;48.978;18.066;2023-08-20T00:41:33;20.33;;;12.48;;
46767;SDS011;69007;48.978;18.066;2023-08-20T00:43:58;14.68;;;12.05;;
46767;SDS011;69007;48.978;18.066;2023-08-20T00:46:23;15.40;;;12.30;;
46767;SDS011;69007;48.978;18.066;2023-08-20T00:48:49;16.65;;;12.27;;
46767;SDS011;69007;48.978;18.066;2023-08-20T00:51:14;15.98;;;13.27;;
46767;SDS011;69007;48.978;18.066;2023-08-20T00:53:40;17.20;;;14.43;;
46767;SDS011;69007;48.978;18.066;2023-08-20T00:56:05;17.15;;;12.63;;
46767;SDS011;69007;48.978;18.066;2023-08-20T00:58:31;18.38;;;12.82;;
46767;SDS011;69007;48.978;18.066;2023-08-20T01:00:56;15.80;;;12.95;;
46767;SDS011;69007;48.978;18.066;2023-08-20T01:03:22;19.08;;;13.70;;
46767;SDS011;69007;48.978;18.066;2023-08-20T01:05:50;14.70;;;12.95;;
46767;SDS011;69007;48.978;18.066;2023-08-20T01:08:35;17.55;;;13.15;;
46767;SDS011;69007;48.978;18.066;2023-08-20T01:11:12;15.13;;;13.38;;
46767;SDS011;69007;48.978;18.066;2023-08-20T01:13:44;15.52;;;13.95;;
46767;SDS011;69007;48.978;18.066;2023-08-20T01:16:11;18.50;;;13.77;;
46767;SDS011;69007;48.978;18.066;2023-08-20T01:18:36;17.25;;;12.77;;
46767;SDS011;69007;48.978;18.066;2023-08-20T01:21:02;18.38;;;13.70;;
46767;SDS011;69007;48.978;18.066;2023-08-20T01:23:48;13.98;;;12.57;;
46767;SDS011;69007;48.978;18.066;2023-08-20T01:28:58;19.88;;;14.32;;
46767;SDS011;69007;48.978;18.066;2023-08-20T01:31:24;16.10;;;13.05;;
46767;SDS011;69007;48.978;18.066;2023-08-20T01:33:51;19.67;;;13.90;;
46767;SDS011;69007;48.978;18.066;2023-08-20T01:36:17;16.23;;;14.20;;
46767;SDS011;69007;48.978;18.066;2023-08-20T01:38:42;15.15;;;13.55;;
46767;SDS011;69007;48.978;18.066;2023-08-20T01:41:08;15.57;;;13.52;;
46767;SDS011;69007;48.978;18.066;2023-08-20T01:43:33;14.25;;;12.73;;
46767;SDS011;69007;48.978;18.066;2023-08-20T01:45:59;21.20;;;12.98;;
46767;SDS011;69007;48.978;18.066;2023-08-20T01:48:24;14.93;;;13.38;;
46767;SDS011;69007;48.978;18.066;2023-08-20T01:50:50;15.90;;;13.18;;
46767;SDS011;69007;48.978;18.066;2023-08-20T01:53:15;16.27;;;12.57;;
46767;SDS011;69007;48.978;18.066;2023-08-20T01:55:40;14.00;;;12.35;;
46767;SDS011;69007;48.978;18.066;2023-08-20T01:58:06;16.83;;;13.20;;
46767;SDS011;69007;48.978;18.066;2023-08-20T02:00:31;14.73;;;13.07;;
46767;SDS011;69007;48.978;18.066;2023-08-20T02:02:58;19.05;;;13.82;;
46767;SDS011;69007;48.978;18.066;2023-08-20T02:05:24;16.70;;;13.45;;
46767;SDS011;69007;48.978;18.066;2023-08-20T02:07:49;14.43;;;13.05;;
46767;SDS011;69007;48.978;18.066;2023-08-20T02:10:15;14.48;;;13.00;;
46767;SDS011;69007;48.978;18.066;2023-08-20T02:12:40;13.75;;;12.18;;
46767;SDS011;69007;48.978;18.066;2023-08-20T02:15:06;14.68;;;13.07;;
46767;SDS011;69007;48.978;18.066;2023-08-20T02:17:32;17.33;;;12.70;;
46767;SDS011;69007;48.978;18.066;2023-08-20T02:19:58;20.48;;;13.25;;
46767;SDS011;69007;48.978;18.066;2023-08-20T02:22:23;17.70;;;13.35;;
46767;SDS011;69007;48.978;18.066;2023-08-20T02:24:49;17.45;;;13.38;;
46767;SDS011;69007;48.978;18.066;2023-08-20T02:27:14;21.25;;;14.10;;
46767;SDS011;69007;48.978;18.066;2023-08-20T02:29:39;16.40;;;13.70;;
46767;SDS011;69007;48.978;18.066;2023-08-20T02:32:05;14.40;;;12.90;;
46767;SDS011;69007;48.978;18.066;2023-08-20T02:34:30;16.35;;;13.50;;
46767;SDS011;69007;48.978;18.066;2023-08-20T02:36:55;15.90;;;13.32;;
46767;SDS011;69007;48.978;18.066;2023-08-20T02:39:21;14.95;;;13.32;;
46767;SDS011;69007;48.978;18.066;2023-08-20T02:41:46;15.18;;;13.65;;
46767;SDS011;69007;48.978;18.066;2023-08-20T02:44:11;16.70;;;12.50;;
46767;SDS011;69007;48.978;18.066;2023-08-20T02:46:37;17.13;;;12.32;;
46767;SDS011;69007;48.978;18.066;2023-08-20T02:49:03;14.30;;;12.55;;
46767;SDS011;69007;48.978;18.066;2023-08-20T02:51:28;15.60;;;12.73;;
46767;SDS011;69007;48.978;18.066;2023-08-20T02:53:54;13.77;;;12.32;;
46767;SDS011;69007;48.978;18.066;2023-08-20T02:56:19;14.63;;;12.57;;
46767;SDS011;69007;48.978;18.066;2023-08-20T02:58:45;22.48;;;13.48;;
46767;SDS011;69007;48.978;18.066;2023-08-20T03:01:21;14.25;;;12.38;;
46767;SDS011;69007;48.978;18.066;2023-08-20T03:03:47;20.83;;;13.13;;
46767;SDS011;69007;48.978;18.066;2023-08-20T03:06:13;16.75;;;13.13;;
46767;SDS011;69007;48.978;18.066;2023-08-20T03:08:38;15.00;;;12.73;;
46767;SDS011;69007;48.978;18.066;2023-08-20T03:11:04;19.17;;;13.27;;
46767;SDS011;69007;48.978;18.066;2023-08-20T03:13:29;19.52;;;12.35;;
46767;SDS011;69007;48.978;18.066;2023-08-20T03:15:55;13.40;;;12.07;;
46767;SDS011;69007;48.978;18.066;2023-08-20T03:18:20;18.13;;;13.93;;
46767;SDS011;69007;48.978;18.066;2023-08-20T03:20:45;18.33;;;14.88;;
46767;SDS011;69007;48.978;18.066;2023-08-20T03:23:11;17.83;;;13.20;;
46767;SDS011;69007;48.978;18.066;2023-08-20T03:25:36;14.38;;;12.98;;
46767;SDS011;69007;48.978;18.066;2023-08-20T03:28:03;14.32;;;12.63;;
46767;SDS011;69007;48.978;18.066;2023-08-20T03:30:28;18.92;;;13.88;;
46767;SDS011;69007;48.978;18.066;2023-08-20T03:32:54;13.57;;;12.27;;
46767;SDS011;69007;48.978;18.066;2023-08-20T03:35:19;15.68;;;13.65;;
46767;SDS011;69007;48.978;18.066;2023-08-20T03:37:44;14.75;;;13.35;;
46767;SDS011;69007;48.978;18.066;2023-08-20T03:40:10;15.10;;;13.18;;
46767;SDS011;69007;48.978;18.066;2023-08-20T03:42:35;14.32;;;12.77;;
46767;SDS011;69007;48.978;18.066;2023-08-20T03:45:01;15.70;;;13.27;;
46767;SDS011;69007;48.978;18.066;2023-08-20T03:47:26;15.73;;;13.93;;
46767;SDS011;69007;48.978;18.066;2023-08-20T03:49:51;15.10;;;13.60;;
46767;SDS011;69007;48.978;18.066;2023-08-20T03:52:17;15.18;;;13.68;;
46767;SDS011;69007;48.978;18.066;2023-08-20T03:54:42;15.65;;;13.90;;
46767;SDS011;69007;48.978;18.066;2023-08-20T03:57:08;18.65;;;13.98;;
46767;SDS011;69007;48.978;18.066;2023-08-20T03:59:33;14.63;;;13.15;;
46767;SDS011;69007;48.978;18.066;2023-08-20T04:01:58;20.10;;;13.85;;
46767;SDS011;69007;48.978;18.066;2023-08-20T04:04:24;19.48;;;13.45;;
46767;SDS011;69007;48.978;18.066;2023-08-20T04:06:50;16.92;;;13.63;;
46767;SDS011;69007;48.978;18.066;2023-08-20T04:09:16;19.23;;;14.43;;
46767;SDS011;69007;48.978;18.066;2023-08-20T04:11:42;18.88;;;14.25;;
46767;SDS011;69007;48.978;18.066;2023-08-20T04:14:07;17.27;;;14.85;;
46767;SDS011;69007;48.978;18.066;2023-08-20T04:16:32;16.35;;;14.70;;
46767;SDS011;69007;48.978;18.066;2023-08-20T04:18:58;17.52;;;14.50;;
46767;SDS011;69007;48.978;18.066;2023-08-20T04:21:23;15.50;;;13.90;;
46767;SDS011;69007;48.978;18.066;2023-08-20T04:23:48;16.65;;;14.95;;
46767;SDS011;69007;48.978;18.066;2023-08-20T04:26:14;15.32;;;13.82;;
46767;SDS011;69007;48.978;18.066;2023-08-20T04:28:39;19.23;;;15.40;;
46767;SDS011;69007;48.978;18.066;2023-08-20T04:31:04;44.55;;;17.15;;
46767;SDS011;69007;48.978;18.066;2023-08-20T04:33:30;15.27;;;13.63;;
46767;SDS011;69007;48.978;18.066;2023-08-20T04:35:55;20.65;;;15.30;;
46767;SDS011;69007;48.978;18.066;2023-08-20T04:38:20;99.28;;;17.60;;
46767;SDS011;69007;48.978;18.066;2023-08-20T04:40:46;15.88;;;14.27;;
46767;SDS011;69007;48.978;18.066;2023-08-20T04:43:12;13.95;;;12.65;;
46767;SDS011;69007;48.978;18.066;2023-08-20T04:45:38;14.40;;;12.75;;
46767;SDS011;69007;48.978;18.066;2023-08-20T04:48:03;14.20;;;12.23;;
46767;SDS011;69007;48.978;18.066;2023-08-20T04:50:29;11.70;;;10.50;;
46767;SDS011;69007;48.978;18.066;2023-08-20T04:52:54;11.80;;;10.70;;
46767;SDS011;69007;48.978;18.066;2023-08-20T04:55:20;11.95;;;10.85;;
46767;SDS011;69007;48.978;18.066;2023-08-20T04:57:45;12.73;;;11.00;;
46767;SDS011;69007;48.978;18.066;2023-08-20T05:00:10;12.32;;;10.65;;
46767;SDS011;69007;48.978;18.066;2023-08-20T05:02:36;11.77;;;9.95;;
46767;SDS011;69007;48.978;18.066;2023-08-20T05:05:02;10.95;;;9.90;;
46767;SDS011;69007;48.978;18.066;2023-08-20T05:07:28;14.95;;;9.60;;
46767;SDS011;69007;48.978;18.066;2023-08-20T05:09:53;14.85;;;10.38;;
46767;SDS011;69007;48.978;18.066;2023-08-20T05:12:19;12.30;;;10.45;;
46767;SDS011;69007;48.978;18.066;2023-08-20T05:14:44;17.83;;;12.63;;
46767;SDS011;69007;48.978;18.066;2023-08-20T05:17:09;14.18;;;12.27;;
46767;SDS011;69007;48.978;18.066;2023-08-20T05:19:35;14.50;;;11.40;;
46767;SDS011;69007;48.978;18.066;2023-08-20T05:22:00;13.63;;;10.38;;
46767;SDS011;69007;48.978;18.066;2023-08-20T05:24:25;15.65;;;10.88;;
46767;SDS011;69007;48.978;18.066;2023-08-20T05:27:03;14.77;;;9.90;;
46767;SDS011;69007;48.978;18.066;2023-08-20T05:29:32;13.50;;;10.02;;
46767;SDS011;69007;48.978;18.066;2023-08-20T05:31:58;10.48;;;8.57;;
46767;SDS011;69007;48.978;18.066;2023-08-20T05:34:23;11.27;;;8.60;;
46767;SDS011;69007;48.978;18.066;2023-08-20T05:36:48;8.75;;;7.85;;
46767;SDS011;69007;48.978;18.066;2023-08-20T05:39:14;11.38;;;7.70;;
46767;SDS011;69007;48.978;18.066;2023-08-20T05:41:39;10.30;;;7.97;;
46767;SDS011;69007;48.978;18.066;2023-08-20T05:44:04;13.35;;;7.35;;
46767;SDS011;69007;48.978;18.066;2023-08-20T05:46:30;11.57;;;7.13;;
46767;SDS011;69007;48.978;18.066;2023-08-20T05:48:55;9.60;;;7.60;;
46767;SDS011;69007;48.978;18.066;2023-08-20T05:51:21;10.88;;;7.22;;
46767;SDS011;69007;48.978;18.066;2023-08-20T05:53:46;13.10;;;7.20;;
46767;SDS011;69007;48.978;18.066;2023-08-20T05:56:11;7.55;;;6.85;;
46767;SDS011;69007;48.978;18.066;2023-08-20T05:58:36;8.55;;;6.90;;
46767;SDS011;69007;48.978;18.066;2023-08-20T06:01:02;8.38;;;7.30;;
46767;SDS011;69007;48.978;18.066;2023-08-20T06:03:27;7.88;;;7.07;;
46767;SDS011;69007;48.978;18.066;2023-08-20T06:05:52;8.18;;;6.90;;
46767;SDS011;69007;48.978;18.066;2023-08-20T06:08:18;10.93;;;6.30;;
46767;SDS011;69007;48.978;18.066;2023-08-20T06:10:43;10.88;;;7.28;;
46767;SDS011;69007;48.978;18.066;2023-08-20T06:13:09;18.55;;;8.30;;
46767;SDS011;69007;48.978;18.066;2023-08-20T06:15:34;13.18;;;7.97;;
46767;SDS011;69007;48.978;18.066;2023-08-20T06:17:59;8.43;;;7.72;;
46767;SDS011;69007;48.978;18.066;2023-08-20T06:20:25;7.85;;;7.05;;
46767;SDS011;69007;48.978;18.066;2023-08-20T06:22:50;11.95;;;7.22;;
46767;SDS011;69007;48.978;18.066;2023-08-20T06:25:16;11.15;;;7.05;;
46767;SDS011;69007;48.978;18.066;2023-08-20T06:27:41;12.13;;;7.45;;
46767;SDS011;69007;48.978;18.066;2023-08-20T06:30:06;10.45;;;6.68;;
46767;SDS011;69007;48.978;18.066;2023-08-20T06:32:33;7.32;;;6.50;;
46767;SDS011;69007;48.978;18.066;2023-08-20T06:34:59;10.48;;;7.78;;
46767;SDS011;69007;48.978;18.066;2023-08-20T06:37:24;8.98;;;7.43;;
46767;SDS011;69007;48.978;18.066;2023-08-20T06:39:50;17.40;;;7.30;;
46767;SDS011;69007;48.978;18.066;2023-08-20T06:42:15;12.77;;;7.47;;
46767;SDS011;69007;48.978;18.066;2023-08-20T06:44:40;9.52;;;7.43;;
46767;SDS011;69007;48.978;18.066;2023-08-20T06:47:06;11.70;;;6.70;;
46767;SDS011;69007;48.978;18.066;2023-08-20T06:49:31;14.15;;;7.50;;
46767;SDS011;69007;48.978;18.066;2023-08-20T06:51:56;7.97;;;7.20;;
46767;SDS011;69007;48.978;18.066;2023-08-20T06:54:22;10.63;;;7.20;;
46767;SDS011;69007;48.978;18.066;2023-08-20T06:56:47;7.47;;;6.75;;
46767;SDS011;69007;48.978;18.066;2023-08-20T06:59:13;15.50;;;7.72;;
46767;SDS011;69007;48.978;18.066;2023-08-20T07:01:38;14.15;;;8.55;;
46767;SDS011;69007;48.978;18.066;2023-08-20T07:04:04;12.43;;;8.32;;
46767;SDS011;69007;48.978;18.066;2023-08-20T07:06:29;14.02;;;9.40;;
46767;SDS011;69007;48.978;18.066;2023-08-20T07:08:55;11.40;;;8.52;;
46767;SDS011;69007;48.978;18.066;2023-08-20T07:11:21;11.75;;;8.88;;
46767;SDS011;69007;48.978;18.066;2023-08-20T07:13:46;9.00;;;8.20;;
46767;SDS011;69007;48.978;18.066;2023-08-20T07:16:12;10.13;;;8.50;;
46767;SDS011;69007;48.978;18.066;2023-08-20T07:18:37;9.57;;;8.68;;
46767;SDS011;69007;48.978;18.066;2023-08-20T07:21:02;11.70;;;8.77;;
46767;SDS011;69007;48.978;18.066;2023-08-20T07:23:28;11.05;;;8.82;;
46767;SDS011;69007;48.978;18.066;2023-08-20T07:26:03;12.32;;;8.43;;
46767;SDS011;69007;48.978;18.066;2023-08-20T07:28:30;14.23;;;9.65;;
46767;SDS011;69007;48.978;18.066;2023-08-20T07:31:13;12.02;;;9.50;;
46767;SDS011;69007;48.978;18.066;2023-08-20T07:33:39;10.07;;;9.07;;
46767;SDS011;69007;48.978;18.066;2023-08-20T07:36:04;9.93;;;8.93;;
46767;SDS011;69007;48.978;18.066;2023-08-20T07:38:30;12.20;;;10.02;;
46767;SDS011;69007;48.978;18.066;2023-08-20T07:40:55;10.68;;;9.57;;
46767;SDS011;69007;48.978;18.066;2023-08-20T07:43:20;10.50;;;9.50;;
46767;SDS011;69007;48.978;18.066;2023-08-20T07:45:45;14.77;;;11.40;;
46767;SDS011;69007;48.978;18.066;2023-08-20T07:48:11;12.52;;;9.27;;
46767;SDS011;69007;48.978;18.066;2023-08-20T07:50:36;10.57;;;9.00;;
46767;SDS011;69007;48.978;18.066;2023-08-20T07:53:01;13.60;;;8.93;;
46767;SDS011;69007;48.978;18.066;2023-08-20T07:55:27;10.65;;;9.55;;
46767;SDS011;69007;48.978;18.066;2023-08-20T07:57:52;12.15;;;9.10;;
46767;SDS011;69007;48.978;18.066;2023-08-20T08:00:17;11.00;;;9.55;;
46767;SDS011;69007;48.978;18.066;2023-08-20T08:02:43;11.18;;;10.07;;
46767;SDS011;69007;48.978;18.066;2023-08-20T08:05:08;10.57;;;9.48;;
46767;SDS011;69007;48.978;18.066;2023-08-20T08:07:34;11.18;;;9.85;;
46767;SDS011;69007;48.978;18.066;2023-08-20T08:09:59;10.48;;;9.40;;
46767;SDS011;69007;48.978;18.066;2023-08-20T08:12:25;13.20;;;10.25;;
46767;SDS011;69007;48.978;18.066;2023-08-20T08:14:50;10.93;;;9.75;;
46767;SDS011;69007;48.978;18.066;2023-08-20T08:17:15;14.20;;;9.98;;
46767;SDS011;69007;48.978;18.066;2023-08-20T08:19:41;12.05;;;9.77;;
46767;SDS011;69007;48.978;18.066;2023-08-20T08:22:06;11.00;;;9.93;;
46767;SDS011;69007;48.978;18.066;2023-08-20T08:24:31;12.60;;;10.00;;
46767;SDS011;69007;48.978;18.066;2023-08-20T08:26:57;11.25;;;10.20;;
46767;SDS011;69007;48.978;18.066;2023-08-20T08:29:22;17.92;;;9.55;;
46767;SDS011;69007;48.978;18.066;2023-08-20T08:31:47;13.70;;;10.55;;
46767;SDS011;69007;48.978;18.066;2023-08-20T08:34:13;10.43;;;9.48;;
46767;SDS011;69007;48.978;18.066;2023-08-20T08:36:39;11.93;;;9.20;;
46767;SDS011;69007;48.978;18.066;2023-08-20T08:39:05;10.80;;;9.77;;
46767;SDS011;69007;48.978;18.066;2023-08-20T08:41:32;15.10;;;10.10;;
46767;SDS011;69007;48.978;18.066;2023-08-20T08:44:03;11.05;;;9.98;;
46767;SDS011;69007;48.978;18.066;2023-08-20T08:46:30;10.55;;;9.45;;
46767;SDS011;69007;48.978;18.066;2023-08-20T08:48:56;10.77;;;9.50;;
46767;SDS011;69007;48.978;18.066;2023-08-20T08:51:22;9.63;;;8.73;;
46767;SDS011;69007;48.978;18.066;2023-08-20T08:53:49;10.85;;;9.52;;
46767;SDS011;69007;48.978;18.066;2023-08-20T08:56:14;10.30;;;9.30;;
46767;SDS011;69007;48.978;18.066;2023-08-20T08:58:39;11.30;;;9.55;;
46767;SDS011;69007;48.978;18.066;2023-08-20T09:01:05;11.00;;;9.85;;
46767;SDS011;69007;48.978;18.066;2023-08-20T09:03:30;13.00;;;9.82;;
46767;SDS011;69007;48.978;18.066;2023-08-20T09:05:57;11.63;;;9.40;;
46767;SDS011;69007;48.978;18.066;2023-08-20T09:08:31;11.48;;;9.50;;
46767;SDS011;69007;48.978;18.066;2023-08-20T09:10:58;9.80;;;8.90;;
46767;SDS011;69007;48.978;18.066;2023-08-20T09:13:35;10.50;;;9.48;;
46767;SDS011;69007;48.978;18.066;2023-08-20T09:16:02;12.00;;;9.10;;
46767;SDS011;69007;48.978;18.066;2023-08-20T09:18:32;10.38;;;9.00;;
46767;SDS011;69007;48.978;18.066;2023-08-20T09:21:05;11.98;;;9.25;;
46767;SDS011;69007;48.978;18.066;2023-08-20T09:23:31;9.90;;;8.90;;
46767;SDS011;69007;48.978;18.066;2023-08-20T09:25:57;9.32;;;8.43;;
46767;SDS011;69007;48.978;18.066;2023-08-20T09:28:26;9.32;;;8.40;;
46767;SDS011;69007;48.978;18.066;2023-08-20T09:30:58;10.27;;;8.98;;
46767;SDS011;69007;48.978;18.066;2023-08-20T09:33:27;14.80;;;8.85;;
46767;SDS011;69007;48.978;18.066;2023-08-20T09:35:53;10.40;;;9.20;;
46767;SDS011;69007;48.978;18.066;2023-08-20T09:38:19;9.25;;;8.35;;
46767;SDS011;69007;48.978;18.066;2023-08-20T09:40:49;9.15;;;8.25;;
46767;SDS011;69007;48.978;18.066;2023-08-20T09:43:17;9.40;;;8.50;;
46767;SDS011;69007;48.978;18.066;2023-08-20T09:45:43;11.57;;;8.82;;
46767;SDS011;69007;48.978;18.066;2023-08-20T09:48:11;9.43;;;8.10;;
46767;SDS011;69007;48.978;18.066;2023-08-20T09:50:45;9.02;;;8.10;;
46767;SDS011;69007;48.978;18.066;2023-08-20T09:53:15;12.63;;;7.30;;
46767;SDS011;69007;48.978;18.066;2023-08-20T09:58:14;12.40;;;6.40;;
46767;SDS011;69007;48.978;18.066;2023-08-20T10:00:41;10.95;;;7.45;;
46767;SDS011;69007;48.978;18.066;2023-08-20T10:03:07;6.72;;;6.07;;
46767;SDS011;69007;48.978;18.066;2023-08-20T10:05:32;10.30;;;5.78;;
46767;SDS011;69007;48.978;18.066;2023-08-20T10:07:58;6.30;;;5.75;;
46767;SDS011;69007;48.978;18.066;2023-08-20T10:10:25;6.70;;;6.10;;
46767;SDS011;69007;48.978;18.066;2023-08-20T10:12:51;6.60;;;5.82;;
46767;SDS011;69007;48.978;18.066;2023-08-20T10:15:17;5.88;;;5.30;;
46767;SDS011;69007;48.978;18.066;2023-08-20T10:17:44;6.97;;;5.70;;
46767;SDS011;69007;48.978;18.066;2023-08-20T10:20:12;8.27;;;5.82;;
46767;SDS011;69007;48.978;18.066;2023-08-20T10:22:39;9.10;;;6.60;;
46767;SDS011;69007;48.978;18.066;2023-08-20T10:25:10;8.48;;;6.15;;
46767;SDS011;69007;48.978;18.066;2023-08-20T10:27:38;7.65;;;6.18;;
46767;SDS011;69007;48.978;18.066;2023-08-20T10:30:11;10.75;;;6.57;;
46767;SDS011;69007;48.978;18.066;2023-08-20T10:32:44;7.10;;;6.55;;
46767;SDS011;69007;48.978;18.066;2023-08-20T10:35:17;6.60;;;5.95;;
46767;SDS011;69007;48.978;18.066;2023-08-20T10:38:00;6.65;;;6.00;;
46767;SDS011;69007;48.978;18.066;2023-08-20T10:48:43;8.07;;;5.82;;
46767;SDS011;69007;48.978;18.066;2023-08-20T10:56:37;6.95;;;6.25;;
46767;SDS011;69007;48.978;18.066;2023-08-20T10:59:09;8.27;;;5.78;;
46767;SDS011;69007;48.978;18.066;2023-08-20T11:01:38;5.85;;;5.30;;
46767;SDS011;69007;48.978;18.066;2023-08-20T11:04:04;7.03;;;6.32;;
46767;SDS011;69007;48.978;18.066;2023-08-20T11:06:32;8.77;;;5.35;;
46767;SDS011;69007;48.978;18.066;2023-08-20T11:08:58;5.97;;;5.18;;
46767;SDS011;69007;48.978;18.066;2023-08-20T11:11:24;6.65;;;5.85;;
46767;SDS011;69007;48.978;18.066;2023-08-20T11:13:50;5.97;;;5.40;;
46767;SDS011;69007;48.978;18.066;2023-08-20T11:16:15;7.97;;;6.20;;
46767;SDS011;69007;48.978;18.066;2023-08-20T11:18:41;6.00;;;5.50;;
46767;SDS011;69007;48.978;18.066;2023-08-20T11:21:07;6.43;;;5.82;;
46767;SDS011;69007;48.978;18.066;2023-08-20T11:23:33;8.07;;;6.57;;
46767;SDS011;69007;48.978;18.066;2023-08-20T11:25:59;7.80;;;5.57;;
46767;SDS011;69007;48.978;18.066;2023-08-20T11:28:25;6.40;;;5.55;;
46767;SDS011;69007;48.978;18.066;2023-08-20T11:30:51;6.05;;;5.03;;
46767;SDS011;69007;48.978;18.066;2023-08-20T11:33:17;7.22;;;6.15;;
46767;SDS011;69007;48.978;18.066;2023-08-20T11:35:43;6.80;;;5.40;;
46767;SDS011;69007;48.978;18.066;2023-08-20T11:38:09;6.68;;;6.00;;
46767;SDS011;69007;48.978;18.066;2023-08-20T11:40:35;9.15;;;6.10;;
46767;SDS011;69007;48.978;18.066;2023-08-20T11:43:01;5.55;;;5.13;;
46767;SDS011;69007;48.978;18.066;2023-08-20T11:45:27;11.77;;;6.20;;
46767;SDS011;69007;48.978;18.066;2023-08-20T11:47:55;7.07;;;5.45;;
46767;SDS011;69007;48.978;18.066;2023-08-20T11:50:25;6.47;;;5.80;;
46767;SDS011;69007;48.978;18.066;2023-08-20T11:52:51;10.77;;;5.32;;
46767;SDS011;69007;48.978;18.066;2023-08-20T11:55:22;6.45;;;5.53;;
46767;SDS011;69007;48.978;18.066;2023-08-20T11:57:50;9.88;;;5.88;;
46767;SDS011;69007;48.978;18.066;2023-08-20T12:00:23;6.78;;;6.18;;
46767;SDS011;69007;48.978;18.066;2023-08-20T12:02:53;6.53;;;5.00;;
46767;SDS011;69007;48.978;18.066;2023-08-20T12:05:26;12.63;;;6.07;;
46767;SDS011;69007;48.978;18.066;2023-08-20T12:07:56;9.48;;;6.22;;
46767;SDS011;69007;48.978;18.066;2023-08-20T12:10:22;5.97;;;5.47;;
46767;SDS011;69007;48.978;18.066;2023-08-20T12:12:48;6.22;;;5.63;;
46767;SDS011;69007;48.978;18.066;2023-08-20T12:15:14;6.03;;;5.50;;
46767;SDS011;69007;48.978;18.066;2023-08-20T12:17:40;8.13;;;5.82;;
46767;SDS011;69007;48.978;18.066;2023-08-20T12:20:05;7.88;;;6.20;;
46767;SDS011;69007;48.978;18.066;2023-08-20T12:22:40;7.03;;;5.32;;
46767;SDS011;69007;48.978;18.066;2023-08-20T12:25:06;7.97;;;5.75;;
46767;SDS011;69007;48.978;18.066;2023-08-20T12:27:31;6.65;;;4.65;;
46767;SDS011;69007;48.978;18.066;2023-08-20T12:29:57;6.05;;;5.45;;
46767;SDS011;69007;48.978;18.066;2023-08-20T12:32:22;7.15;;;5.53;;
46767;SDS011;69007;48.978;18.066;2023-08-20T12:34:48;7.28;;;5.40;;
46767;SDS011;69007;48.978;18.066;2023-08-20T12:37:13;6.38;;;5.80;;
46767;SDS011;69007;48.978;18.066;2023-08-20T12:39:38;7.50;;;5.40;;
46767;SDS011;69007;48.978;18.066;2023-08-20T12:42:04;14.20;;;5.40;;
46767;SDS011;69007;48.978;18.066;2023-08-20T12:44:29;6.50;;;5.72;;
46767;SDS011;69007;48.978;18.066;2023-08-20T12:46:55;6.20;;;5.38;;
46767;SDS011;69007;48.978;18.066;2023-08-20T12:49:20;6.40;;;5.70;;
46767;SDS011;69007;48.978;18.066;2023-08-20T12:51:45;10.00;;;6.30;;
46767;SDS011;69007;48.978;18.066;2023-08-20T12:54:11;8.15;;;5.38;;
46767;SDS011;69007;48.978;18.066;2023-08-20T12:56:36;6.55;;;5.53;;
46767;SDS011;69007;48.978;18.066;2023-08-20T12:59:02;6.65;;;6.03;;
46767;SDS011;69007;48.978;18.066;2023-08-20T13:01:27;8.27;;;5.60;;
46767;SDS011;69007;48.978;18.066;2023-08-20T13:03:53;10.68;;;5.50;;
46767;SDS011;69007;48.978;18.066;2023-08-20T13:06:19;7.00;;;5.38;;
46767;SDS011;69007;48.978;18.066;2023-08-20T13:08:45;7.00;;;6.32;;
46767;SDS011;69007;48.978;18.066;2023-08-20T13:11:11;7.07;;;5.68;;
46767;SDS011;69007;48.978;18.066;2023-08-20T13:13:41;7.50;;;5.75;;
46767;SDS011;69007;48.978;18.066;2023-08-20T13:16:07;6.18;;;5.68;;
46767;SDS011;69007;48.978;18.066;2023-08-20T13:18:33;6.68;;;5.63;;
46767;SDS011;69007;48.978;18.066;2023-08-20T13:20:59;6.32;;;5.70;;
46767;SDS011;69007;48.978;18.066;2023-08-20T13:23:26;6.15;;;5.55;;
46767;SDS011;69007;48.978;18.066;2023-08-20T13:25:52;7.40;;;5.53;;
46767;SDS011;69007;48.978;18.066;2023-08-20T13:28:17;9.18;;;6.28;;
46767;SDS011;69007;48.978;18.066;2023-08-20T13:30:43;6.70;;;5.43;;
46767;SDS011;69007;48.978;18.066;2023-08-20T13:33:08;6.03;;;5.53;;
46767;SDS011;69007;48.978;18.066;2023-08-20T13:35:34;6.25;;;5.65;;
46767;SDS011;69007;48.978;18.066;2023-08-20T13:37:59;8.52;;;7.20;;
46767;SDS011;69007;48.978;18.066;2023-08-20T13:40:25;8.55;;;6.60;;
46767;SDS011;69007;48.978;18.066;2023-08-20T13:42:50;6.20;;;5.70;;
46767;SDS011;69007;48.978;18.066;2023-08-20T13:45:16;10.65;;;5.82;;
46767;SDS011;69007;48.978;18.066;2023-08-20T13:47:42;5.82;;;5.43;;
46767;SDS011;69007;48.978;18.066;2023-08-20T13:50:09;6.40;;;5.80;;
46767;SDS011;69007;48.978;18.066;2023-08-20T13:52:35;6.55;;;5.97;;
46767;SDS011;69007;48.978;18.066;2023-08-20T13:55:00;6.05;;;5.45;;
46767;SDS011;69007;48.978;18.066;2023-08-20T13:57:25;6.57;;;5.97;;
46767;SDS011;69007;48.978;18.066;2023-08-20T13:59:51;9.25;;;5.55;;
46767;SDS011;69007;48.978;18.066;2023-08-20T14:02:16;6.40;;;5.80;;
46767;SDS011;69007;48.978;18.066;2023-08-20T14:04:41;5.63;;;5.22;;
46767;SDS011;69007;48.978;18.066;2023-08-20T14:07:07;7.18;;;6.00;;
46767;SDS011;69007;48.978;18.066;2023-08-20T14:09:32;6.40;;;5.22;;
46767;SDS011;69007;48.978;18.066;2023-08-20T14:11:59;9.90;;;5.47;;
46767;SDS011;69007;48.978;18.066;2023-08-20T14:14:25;12.63;;;5.00;;
46767;SDS011;69007;48.978;18.066;2023-08-20T14:16:50;5.28;;;4.85;;
46767;SDS011;69007;48.978;18.066;2023-08-20T14:19:16;4.55;;;4.07;;
46767;SDS011;69007;48.978;18.066;2023-08-20T14:21:41;5.10;;;4.60;;
46767;SDS011;69007;48.978;18.066;2023-08-20T14:24:07;5.07;;;4.65;;
46767;SDS011;69007;48.978;18.066;2023-08-20T14:26:32;5.15;;;4.60;;
46767;SDS011;69007;48.978;18.066;2023-08-20T14:28:57;4.40;;;4.00;;
46767;SDS011;69007;48.978;18.066;2023-08-20T14:31:24;5.05;;;4.22;;
46767;SDS011;69007;48.978;18.066;2023-08-20T14:33:49;5.90;;;3.50;;
46767;SDS011;69007;48.978;18.066;2023-08-20T14:36:15;4.22;;;3.85;;
46767;SDS011;69007;48.978;18.066;2023-08-20T14:38:44;5.88;;;4.30;;